sensor_id;sensor_type;location;lat;lon;timestamp;temperature;humidity
57833;DHT22;43667;53.036;6.740;2022-07-03T00:01:41;17.40;99.90
57833;DHT22;43667;53.036;6.740;2022-07-03T00:04:06;17.40;99.90
57833;DHT22;43667;53.036;6.740;2022-07-03T00:06:32;17.40;99.90
57833;DHT22;43667;53.036;6.740;2022-07-03T00:08:58;17.30;99.90
57833;DHT22;43667;53.036;6.740;2022-07-03T00:11:24;17.20;99.90
57833;DHT22;43667;53.036;6.740;2022-07-03T00:13:50;17.20;99.90
57833;DHT22;43667;53.036;6.740;2022-07-03T00:16:15;17.20;99.90
57833;DHT22;43667;53.036;6.740;2022-07-03T00:18:42;17.20;99.90
57833;DHT22;43667;53.036;6.740;2022-07-03T00:21:09;17.20;99.90
57833;DHT22;43667;53.036;6.740;2022-07-03T00:23:38;17.10;99.90
57833;DHT22;43667;53.036;6.740;2022-07-03T00:26:05;17.10;99.90
57833;DHT22;43667;53.036;6.740;2022-07-03T00:28:31;17.10;99.90
57833;DHT22;43667;53.036;6.740;2022-07-03T00:30:57;17.00;99.90
57833;DHT22;43667;53.036;6.740;2022-07-03T00:33:23;17.00;99.90
57833;DHT22;43667;53.036;6.740;2022-07-03T00:35:50;17.00;99.90
57833;DHT22;43667;53.036;6.740;2022-07-03T00:38:18;17.00;99.90
57833;DHT22;43667;53.036;6.740;2022-07-03T00:40:43;16.90;99.90
57833;DHT22;43667;53.036;6.740;2022-07-03T00:43:09;16.90;99.90
57833;DHT22;43667;53.036;6.740;2022-07-03T00:45:34;16.90;99.90
57833;DHT22;43667;53.036;6.740;2022-07-03T00:48:00;16.90;99.90
57833;DHT22;43667;53.036;6.740;2022-07-03T00:50:27;16.80;99.90
57833;DHT22;43667;53.036;6.740;2022-07-03T00:52:58;16.80;99.90
57833;DHT22;43667;53.036;6.740;2022-07-03T00:55:24;16.70;99.90
57833;DHT22;43667;53.036;6.740;2022-07-03T00:57:51;16.80;99.90
57833;DHT22;43667;53.036;6.740;2022-07-03T01:00:17;16.70;99.90
57833;DHT22;43667;53.036;6.740;2022-07-03T01:02:50;16.70;99.90
57833;DHT22;43667;53.036;6.740;2022-07-03T01:12:56;16.50;99.90
57833;DHT22;43667;53.036;6.740;2022-07-03T01:18:17;16.50;99.90
57833;DHT22;43667;53.036;6.740;2022-07-03T01:20:50;16.40;99.90
57833;DHT22;43667;53.036;6.740;2022-07-03T01:23:20;16.40;99.90
57833;DHT22;43667;53.036;6.740;2022-07-03T01:25:46;16.30;99.90
57833;DHT22;43667;53.036;6.740;2022-07-03T01:28:15;16.30;99.90
57833;DHT22;43667;53.036;6.740;2022-07-03T01:30:46;16.20;99.90
57833;DHT22;43667;53.036;6.740;2022-07-03T01:33:19;16.20;99.90
57833;DHT22;43667;53.036;6.740;2022-07-03T01:38:31;16.20;99.90
57833;DHT22;43667;53.036;6.740;2022-07-03T01:40:57;16.10;99.90
57833;DHT22;43667;53.036;6.740;2022-07-03T01:43:25;16.10;99.90
57833;DHT22;43667;53.036;6.740;2022-07-03T01:45:52;16.00;99.90
57833;DHT22;43667;53.036;6.740;2022-07-03T01:48:18;16.00;99.90
57833;DHT22;43667;53.036;6.740;2022-07-03T01:50:44;15.90;99.90
57833;DHT22;43667;53.036;6.740;2022-07-03T01:53:11;15.90;99.90
57833;DHT22;43667;53.036;6.740;2022-07-03T01:55:38;15.90;99.90
57833;DHT22;43667;53.036;6.740;2022-07-03T01:58:04;15.90;99.90
57833;DHT22;43667;53.036;6.740;2022-07-03T02:00:29;15.80;99.90
57833;DHT22;43667;53.036;6.740;2022-07-03T02:02:56;15.80;99.90
57833;DHT22;43667;53.036;6.740;2022-07-03T02:05:33;15.70;99.90
57833;DHT22;43667;53.036;6.740;2022-07-03T02:08:03;15.70;99.90
57833;DHT22;43667;53.036;6.740;2022-07-03T02:10:33;15.70;99.90
57833;DHT22;43667;53.036;6.740;2022-07-03T02:13:00;15.70;99.90
57833;DHT22;43667;53.036;6.740;2022-07-03T02:15:30;15.60;99.90
57833;DHT22;43667;53.036;6.740;2022-07-03T02:17:56;15.50;99.90
57833;DHT22;43667;53.036;6.740;2022-07-03T02:20:22;15.50;99.90
57833;DHT22;43667;53.036;6.740;2022-07-03T02:22:59;15.50;99.90
57833;DHT22;43667;53.036;6.740;2022-07-03T02:25:35;15.50;99.90
57833;DHT22;43667;53.036;6.740;2022-07-03T02:28:05;15.40;99.90
57833;DHT22;43667;53.036;6.740;2022-07-03T02:30:33;15.40;99.90
57833;DHT22;43667;53.036;6.740;2022-07-03T02:33:01;15.30;99.90
57833;DHT22;43667;53.036;6.740;2022-07-03T02:35:30;15.30;99.90
57833;DHT22;43667;53.036;6.740;2022-07-03T02:38:00;15.30;99.90
57833;DHT22;43667;53.036;6.740;2022-07-03T02:43:19;15.20;99.90
57833;DHT22;43667;53.036;6.740;2022-07-03T02:48:58;15.10;99.90
57833;DHT22;43667;53.036;6.740;2022-07-03T02:51:27;15.10;99.90
57833;DHT22;43667;53.036;6.740;2022-07-03T02:54:09;15.00;99.90
57833;DHT22;43667;53.036;6.740;2022-07-03T02:56:36;15.00;99.90
57833;DHT22;43667;53.036;6.740;2022-07-03T03:06:31;15.00;99.90
57833;DHT22;43667;53.036;6.740;2022-07-03T03:08:59;14.90;99.90
57833;DHT22;43667;53.036;6.740;2022-07-03T03:14:00;14.90;99.90
57833;DHT22;43667;53.036;6.740;2022-07-03T03:16:25;14.80;99.90
57833;DHT22;43667;53.036;6.740;2022-07-03T03:18:52;14.80;99.90
57833;DHT22;43667;53.036;6.740;2022-07-03T03:21:18;14.80;99.90
57833;DHT22;43667;53.036;6.740;2022-07-03T03:23:47;14.80;99.90
57833;DHT22;43667;53.036;6.740;2022-07-03T03:26:25;14.70;99.90
57833;DHT22;43667;53.036;6.740;2022-07-03T03:28:53;14.70;99.90
57833;DHT22;43667;53.036;6.740;2022-07-03T03:31:20;14.70;99.90
57833;DHT22;43667;53.036;6.740;2022-07-03T03:33:47;14.60;99.90
57833;DHT22;43667;53.036;6.740;2022-07-03T03:36:18;14.60;99.90
57833;DHT22;43667;53.036;6.740;2022-07-03T03:38:45;14.60;99.90
57833;DHT22;43667;53.036;6.740;2022-07-03T03:41:11;14.60;99.90
57833;DHT22;43667;53.036;6.740;2022-07-03T03:43:36;14.60;99.90
57833;DHT22;43667;53.036;6.740;2022-07-03T03:46:03;14.50;99.90
57833;DHT22;43667;53.036;6.740;2022-07-03T03:48:29;14.60;99.90
57833;DHT22;43667;53.036;6.740;2022-07-03T03:50:58;14.60;99.90
57833;DHT22;43667;53.036;6.740;2022-07-03T03:53:24;14.60;99.90
57833;DHT22;43667;53.036;6.740;2022-07-03T03:56:00;14.60;99.90
57833;DHT22;43667;53.036;6.740;2022-07-03T03:58:27;14.60;99.90
57833;DHT22;43667;53.036;6.740;2022-07-03T04:00:52;14.70;99.90
57833;DHT22;43667;53.036;6.740;2022-07-03T04:03:19;14.60;99.90
57833;DHT22;43667;53.036;6.740;2022-07-03T04:05:45;14.70;99.90
57833;DHT22;43667;53.036;6.740;2022-07-03T04:08:10;14.70;99.90
57833;DHT22;43667;53.036;6.740;2022-07-03T04:10:37;14.70;99.90
57833;DHT22;43667;53.036;6.740;2022-07-03T04:13:02;14.70;99.90
57833;DHT22;43667;53.036;6.740;2022-07-03T04:15:28;14.70;99.90
57833;DHT22;43667;53.036;6.740;2022-07-03T04:17:53;14.70;99.90
57833;DHT22;43667;53.036;6.740;2022-07-03T04:20:19;14.60;99.90
57833;DHT22;43667;53.036;6.740;2022-07-03T04:22:44;14.70;99.90
57833;DHT22;43667;53.036;6.740;2022-07-03T04:25:10;14.70;99.90
57833;DHT22;43667;53.036;6.740;2022-07-03T04:27:35;14.70;99.90
57833;DHT22;43667;53.036;6.740;2022-07-03T04:30:01;14.70;99.90
57833;DHT22;43667;53.036;6.740;2022-07-03T04:32:26;14.70;99.90
57833;DHT22;43667;53.036;6.740;2022-07-03T04:34:52;14.70;99.90
57833;DHT22;43667;53.036;6.740;2022-07-03T04:37:17;14.70;99.90
57833;DHT22;43667;53.036;6.740;2022-07-03T04:39:43;14.70;99.90
57833;DHT22;43667;53.036;6.740;2022-07-03T04:42:08;14.70;99.90
57833;DHT22;43667;53.036;6.740;2022-07-03T04:44:34;14.70;99.90
57833;DHT22;43667;53.036;6.740;2022-07-03T04:46:59;14.70;99.90
57833;DHT22;43667;53.036;6.740;2022-07-03T04:49:25;14.70;99.90
57833;DHT22;43667;53.036;6.740;2022-07-03T04:51:50;14.70;99.90
57833;DHT22;43667;53.036;6.740;2022-07-03T04:54:17;14.70;99.90
57833;DHT22;43667;53.036;6.740;2022-07-03T04:56:43;14.70;99.90
57833;DHT22;43667;53.036;6.740;2022-07-03T04:59:09;14.80;99.90
57833;DHT22;43667;53.036;6.740;2022-07-03T05:01:34;14.80;99.90
57833;DHT22;43667;53.036;6.740;2022-07-03T05:03:59;14.80;99.90
57833;DHT22;43667;53.036;6.740;2022-07-03T05:06:25;14.80;99.90
57833;DHT22;43667;53.036;6.740;2022-07-03T05:08:50;14.90;99.90
57833;DHT22;43667;53.036;6.740;2022-07-03T05:11:16;14.80;99.90
57833;DHT22;43667;53.036;6.740;2022-07-03T05:13:41;14.90;99.90
57833;DHT22;43667;53.036;6.740;2022-07-03T05:16:07;14.90;99.90
57833;DHT22;43667;53.036;6.740;2022-07-03T05:18:33;14.90;99.90
57833;DHT22;43667;53.036;6.740;2022-07-03T05:20:58;15.10;99.90
57833;DHT22;43667;53.036;6.740;2022-07-03T05:23:24;15.10;99.90
57833;DHT22;43667;53.036;6.740;2022-07-03T05:25:49;15.30;99.90
57833;DHT22;43667;53.036;6.740;2022-07-03T05:28:15;15.40;99.90
57833;DHT22;43667;53.036;6.740;2022-07-03T05:30:40;15.40;99.90
57833;DHT22;43667;53.036;6.740;2022-07-03T05:33:06;15.60;99.90
57833;DHT22;43667;53.036;6.740;2022-07-03T05:35:31;15.70;99.90
57833;DHT22;43667;53.036;6.740;2022-07-03T05:37:57;15.90;99.90
57833;DHT22;43667;53.036;6.740;2022-07-03T05:40:22;16.00;99.90
57833;DHT22;43667;53.036;6.740;2022-07-03T05:42:48;16.20;99.90
57833;DHT22;43667;53.036;6.740;2022-07-03T05:45:13;16.40;99.90
57833;DHT22;43667;53.036;6.740;2022-07-03T05:47:39;16.50;99.90
57833;DHT22;43667;53.036;6.740;2022-07-03T05:50:04;16.70;99.90
57833;DHT22;43667;53.036;6.740;2022-07-03T05:52:30;16.90;99.90
57833;DHT22;43667;53.036;6.740;2022-07-03T05:54:55;17.10;99.90
57833;DHT22;43667;53.036;6.740;2022-07-03T05:57:21;17.30;99.90
57833;DHT22;43667;53.036;6.740;2022-07-03T05:59:47;17.40;99.90
57833;DHT22;43667;53.036;6.740;2022-07-03T06:02:12;17.70;99.90
57833;DHT22;43667;53.036;6.740;2022-07-03T06:04:38;17.80;99.90
57833;DHT22;43667;53.036;6.740;2022-07-03T06:07:03;18.00;99.90
57833;DHT22;43667;53.036;6.740;2022-07-03T06:09:29;18.20;99.90
57833;DHT22;43667;53.036;6.740;2022-07-03T06:11:54;18.30;99.90
57833;DHT22;43667;53.036;6.740;2022-07-03T06:14:20;18.50;99.90
57833;DHT22;43667;53.036;6.740;2022-07-03T06:16:45;18.50;99.90
57833;DHT22;43667;53.036;6.740;2022-07-03T06:19:11;18.50;99.90
57833;DHT22;43667;53.036;6.740;2022-07-03T06:21:36;18.60;99.90
57833;DHT22;43667;53.036;6.740;2022-07-03T06:24:02;18.60;99.90
57833;DHT22;43667;53.036;6.740;2022-07-03T06:26:28;18.70;99.90
57833;DHT22;43667;53.036;6.740;2022-07-03T06:28:54;18.70;99.90
57833;DHT22;43667;53.036;6.740;2022-07-03T06:31:20;18.80;99.90
57833;DHT22;43667;53.036;6.740;2022-07-03T06:33:45;18.80;99.90
57833;DHT22;43667;53.036;6.740;2022-07-03T06:36:11;18.80;99.90
57833;DHT22;43667;53.036;6.740;2022-07-03T06:38:36;18.90;99.90
57833;DHT22;43667;53.036;6.740;2022-07-03T06:41:02;19.00;99.90
57833;DHT22;43667;53.036;6.740;2022-07-03T06:43:27;19.20;99.90
57833;DHT22;43667;53.036;6.740;2022-07-03T06:45:53;19.50;99.90
57833;DHT22;43667;53.036;6.740;2022-07-03T06:48:18;19.90;99.90
57833;DHT22;43667;53.036;6.740;2022-07-03T06:50:47;20.20;99.90
57833;DHT22;43667;53.036;6.740;2022-07-03T06:53:13;20.30;99.90
57833;DHT22;43667;53.036;6.740;2022-07-03T06:55:38;20.40;99.90
57833;DHT22;43667;53.036;6.740;2022-07-03T06:58:04;20.50;99.90
57833;DHT22;43667;53.036;6.740;2022-07-03T07:00:29;20.50;99.90
57833;DHT22;43667;53.036;6.740;2022-07-03T07:02:55;20.50;99.90
57833;DHT22;43667;53.036;6.740;2022-07-03T07:05:20;20.60;99.90
57833;DHT22;43667;53.036;6.740;2022-07-03T07:07:47;20.50;99.90
57833;DHT22;43667;53.036;6.740;2022-07-03T07:10:13;20.60;99.90
57833;DHT22;43667;53.036;6.740;2022-07-03T07:12:38;20.60;99.90
57833;DHT22;43667;53.036;6.740;2022-07-03T07:15:04;20.60;99.90
57833;DHT22;43667;53.036;6.740;2022-07-03T07:17:30;20.70;99.90
57833;DHT22;43667;53.036;6.740;2022-07-03T07:19:55;20.60;99.90
57833;DHT22;43667;53.036;6.740;2022-07-03T07:22:22;20.60;99.90
57833;DHT22;43667;53.036;6.740;2022-07-03T07:24:47;20.70;99.90
57833;DHT22;43667;53.036;6.740;2022-07-03T07:27:13;20.80;99.90
57833;DHT22;43667;53.036;6.740;2022-07-03T07:29:38;20.90;99.90
57833;DHT22;43667;53.036;6.740;2022-07-03T07:32:04;21.00;99.90
57833;DHT22;43667;53.036;6.740;2022-07-03T07:34:30;21.10;99.90
57833;DHT22;43667;53.036;6.740;2022-07-03T07:36:55;21.10;99.90
57833;DHT22;43667;53.036;6.740;2022-07-03T07:39:21;21.10;99.90
57833;DHT22;43667;53.036;6.740;2022-07-03T07:41:46;21.00;99.90
57833;DHT22;43667;53.036;6.740;2022-07-03T07:44:12;21.10;99.90
57833;DHT22;43667;53.036;6.740;2022-07-03T07:46:37;21.00;99.90
57833;DHT22;43667;53.036;6.740;2022-07-03T07:49:03;21.00;99.90
57833;DHT22;43667;53.036;6.740;2022-07-03T07:51:28;21.10;99.90
57833;DHT22;43667;53.036;6.740;2022-07-03T07:53:54;21.20;99.90
57833;DHT22;43667;53.036;6.740;2022-07-03T07:56:26;21.30;99.90
57833;DHT22;43667;53.036;6.740;2022-07-03T07:58:51;21.50;99.90
57833;DHT22;43667;53.036;6.740;2022-07-03T08:01:18;21.70;99.90
57833;DHT22;43667;53.036;6.740;2022-07-03T08:04:02;22.00;99.10
57833;DHT22;43667;53.036;6.740;2022-07-03T08:06:47;22.30;97.80
57833;DHT22;43667;53.036;6.740;2022-07-03T08:09:12;22.50;99.80
57833;DHT22;43667;53.036;6.740;2022-07-03T08:11:38;22.80;97.30
57833;DHT22;43667;53.036;6.740;2022-07-03T08:14:03;23.10;99.10
57833;DHT22;43667;53.036;6.740;2022-07-03T08:16:30;23.30;98.50
57833;DHT22;43667;53.036;6.740;2022-07-03T08:18:56;23.60;97.50
57833;DHT22;43667;53.036;6.740;2022-07-03T08:21:22;23.80;95.70
57833;DHT22;43667;53.036;6.740;2022-07-03T08:23:47;24.00;94.40
57833;DHT22;43667;53.036;6.740;2022-07-03T08:26:13;24.10;94.30
57833;DHT22;43667;53.036;6.740;2022-07-03T08:28:38;24.30;93.10
57833;DHT22;43667;53.036;6.740;2022-07-03T08:31:04;24.40;91.70
57833;DHT22;43667;53.036;6.740;2022-07-03T08:33:29;24.50;90.90
57833;DHT22;43667;53.036;6.740;2022-07-03T08:35:55;24.50;86.00
57833;DHT22;43667;53.036;6.740;2022-07-03T08:38:22;24.30;87.10
57833;DHT22;43667;53.036;6.740;2022-07-03T08:40:51;24.20;90.70
57833;DHT22;43667;53.036;6.740;2022-07-03T08:43:16;24.20;91.10
57833;DHT22;43667;53.036;6.740;2022-07-03T08:45:43;24.10;89.80
57833;DHT22;43667;53.036;6.740;2022-07-03T08:48:08;23.90;91.50
57833;DHT22;43667;53.036;6.740;2022-07-03T08:50:34;23.70;90.90
57833;DHT22;43667;53.036;6.740;2022-07-03T08:53:01;23.50;91.70
57833;DHT22;43667;53.036;6.740;2022-07-03T08:55:28;23.40;93.80
57833;DHT22;43667;53.036;6.740;2022-07-03T08:57:54;23.30;94.30
57833;DHT22;43667;53.036;6.740;2022-07-03T09:00:21;23.30;95.00
57833;DHT22;43667;53.036;6.740;2022-07-03T09:02:48;23.30;95.10
57833;DHT22;43667;53.036;6.740;2022-07-03T09:05:14;23.30;93.30
57833;DHT22;43667;53.036;6.740;2022-07-03T09:07:40;23.40;93.00
57833;DHT22;43667;53.036;6.740;2022-07-03T09:10:08;23.40;93.30
57833;DHT22;43667;53.036;6.740;2022-07-03T09:12:34;23.40;94.60
57833;DHT22;43667;53.036;6.740;2022-07-03T09:15:00;23.50;92.20
57833;DHT22;43667;53.036;6.740;2022-07-03T09:17:27;23.60;89.20
57833;DHT22;43667;53.036;6.740;2022-07-03T09:19:52;23.80;89.30
57833;DHT22;43667;53.036;6.740;2022-07-03T09:24:51;24.30;87.00
57833;DHT22;43667;53.036;6.740;2022-07-03T09:27:18;24.50;84.10
57833;DHT22;43667;53.036;6.740;2022-07-03T09:29:50;24.80;88.40
57833;DHT22;43667;53.036;6.740;2022-07-03T09:32:15;24.90;79.90
57833;DHT22;43667;53.036;6.740;2022-07-03T09:34:41;25.00;76.50
57833;DHT22;43667;53.036;6.740;2022-07-03T09:37:06;25.10;79.10
57833;DHT22;43667;53.036;6.740;2022-07-03T09:39:32;25.20;79.10
57833;DHT22;43667;53.036;6.740;2022-07-03T09:42:05;25.40;82.00
57833;DHT22;43667;53.036;6.740;2022-07-03T09:44:33;25.50;69.00
57833;DHT22;43667;53.036;6.740;2022-07-03T09:47:05;25.50;64.50
57833;DHT22;43667;53.036;6.740;2022-07-03T09:49:53;25.30;65.40
57833;DHT22;43667;53.036;6.740;2022-07-03T09:52:34;25.30;65.20
57833;DHT22;43667;53.036;6.740;2022-07-03T09:55:00;25.40;64.30
57833;DHT22;43667;53.036;6.740;2022-07-03T09:57:27;25.40;65.50
57833;DHT22;43667;53.036;6.740;2022-07-03T10:02:50;25.70;61.90
57833;DHT22;43667;53.036;6.740;2022-07-03T10:05:17;25.80;63.60
57833;DHT22;43667;53.036;6.740;2022-07-03T10:07:49;25.90;59.40
57833;DHT22;43667;53.036;6.740;2022-07-03T10:10:14;25.90;62.00
57833;DHT22;43667;53.036;6.740;2022-07-03T10:12:40;26.00;61.70
57833;DHT22;43667;53.036;6.740;2022-07-03T10:15:06;25.90;63.50
57833;DHT22;43667;53.036;6.740;2022-07-03T10:17:31;25.70;59.60
57833;DHT22;43667;53.036;6.740;2022-07-03T10:19:57;25.70;57.20
57833;DHT22;43667;53.036;6.740;2022-07-03T10:22:23;25.60;58.10
57833;DHT22;43667;53.036;6.740;2022-07-03T10:24:50;25.70;61.40
57833;DHT22;43667;53.036;6.740;2022-07-03T10:27:16;25.80;57.10
57833;DHT22;43667;53.036;6.740;2022-07-03T10:29:41;26.10;56.40
57833;DHT22;43667;53.036;6.740;2022-07-03T10:32:08;26.20;56.10
57833;DHT22;43667;53.036;6.740;2022-07-03T10:34:34;26.40;57.00
57833;DHT22;43667;53.036;6.740;2022-07-03T10:37:01;26.60;53.40
57833;DHT22;43667;53.036;6.740;2022-07-03T10:39:30;26.90;53.40
57833;DHT22;43667;53.036;6.740;2022-07-03T10:41:58;27.10;49.70
57833;DHT22;43667;53.036;6.740;2022-07-03T10:47:44;27.30;48.00
57833;DHT22;43667;53.036;6.740;2022-07-03T10:50:11;27.30;50.70
57833;DHT22;43667;53.036;6.740;2022-07-03T10:52:38;27.20;50.40
57833;DHT22;43667;53.036;6.740;2022-07-03T10:55:04;27.20;51.10
57833;DHT22;43667;53.036;6.740;2022-07-03T10:57:36;27.00;52.90
57833;DHT22;43667;53.036;6.740;2022-07-03T11:00:13;26.90;52.60
57833;DHT22;43667;53.036;6.740;2022-07-03T11:02:39;26.80;54.90
57833;DHT22;43667;53.036;6.740;2022-07-03T11:08:02;27.20;52.40
57833;DHT22;43667;53.036;6.740;2022-07-03T11:10:29;27.30;50.60
57833;DHT22;43667;53.036;6.740;2022-07-03T11:13:11;27.40;50.60
57833;DHT22;43667;53.036;6.740;2022-07-03T11:20:34;27.30;51.60
57833;DHT22;43667;53.036;6.740;2022-07-03T11:33:43;27.20;54.20
57833;DHT22;43667;53.036;6.740;2022-07-03T11:38:40;27.30;52.60
57833;DHT22;43667;53.036;6.740;2022-07-03T11:41:06;27.50;53.20
57833;DHT22;43667;53.036;6.740;2022-07-03T11:43:33;27.30;51.00
57833;DHT22;43667;53.036;6.740;2022-07-03T11:45:59;27.10;51.10
57833;DHT22;43667;53.036;6.740;2022-07-03T11:48:25;27.00;50.30
57833;DHT22;43667;53.036;6.740;2022-07-03T11:50:51;27.00;50.40
57833;DHT22;43667;53.036;6.740;2022-07-03T11:53:21;26.70;49.40
57833;DHT22;43667;53.036;6.740;2022-07-03T11:55:50;26.70;51.20
57833;DHT22;43667;53.036;6.740;2022-07-03T11:58:16;26.80;50.80
57833;DHT22;43667;53.036;6.740;2022-07-03T12:00:42;26.90;50.60
57833;DHT22;43667;53.036;6.740;2022-07-03T12:03:07;27.00;50.20
57833;DHT22;43667;53.036;6.740;2022-07-03T12:05:33;27.00;49.00
57833;DHT22;43667;53.036;6.740;2022-07-03T12:08:05;27.00;50.50
57833;DHT22;43667;53.036;6.740;2022-07-03T12:10:40;26.80;51.50
57833;DHT22;43667;53.036;6.740;2022-07-03T12:13:21;26.60;52.30
57833;DHT22;43667;53.036;6.740;2022-07-03T12:15:47;26.50;53.70
57833;DHT22;43667;53.036;6.740;2022-07-03T12:18:12;26.50;54.20
57833;DHT22;43667;53.036;6.740;2022-07-03T12:20:38;26.60;53.30
57833;DHT22;43667;53.036;6.740;2022-07-03T12:23:04;26.80;56.50
57833;DHT22;43667;53.036;6.740;2022-07-03T12:25:29;27.10;57.50
57833;DHT22;43667;53.036;6.740;2022-07-03T12:27:55;27.30;54.30
57833;DHT22;43667;53.036;6.740;2022-07-03T12:30:21;27.50;53.00
57833;DHT22;43667;53.036;6.740;2022-07-03T12:32:49;27.40;52.90
57833;DHT22;43667;53.036;6.740;2022-07-03T12:35:20;27.20;53.80
57833;DHT22;43667;53.036;6.740;2022-07-03T12:37:46;27.10;52.80
57833;DHT22;43667;53.036;6.740;2022-07-03T12:40:12;26.80;54.30
57833;DHT22;43667;53.036;6.740;2022-07-03T12:42:57;26.70;54.30
57833;DHT22;43667;53.036;6.740;2022-07-03T12:45:24;26.60;54.90
57833;DHT22;43667;53.036;6.740;2022-07-03T12:50:22;26.50;55.70
57833;DHT22;43667;53.036;6.740;2022-07-03T12:52:55;26.40;56.40
57833;DHT22;43667;53.036;6.740;2022-07-03T12:55:22;26.60;57.10
57833;DHT22;43667;53.036;6.740;2022-07-03T12:57:48;26.80;55.40
57833;DHT22;43667;53.036;6.740;2022-07-03T13:00:41;26.80;56.00
57833;DHT22;43667;53.036;6.740;2022-07-03T13:03:08;26.80;55.70
57833;DHT22;43667;53.036;6.740;2022-07-03T13:05:40;26.60;54.40
57833;DHT22;43667;53.036;6.740;2022-07-03T13:08:06;26.50;55.10
57833;DHT22;43667;53.036;6.740;2022-07-03T13:10:31;26.50;53.90
57833;DHT22;43667;53.036;6.740;2022-07-03T13:12:57;26.40;54.80
57833;DHT22;43667;53.036;6.740;2022-07-03T13:15:24;26.40;56.20
57833;DHT22;43667;53.036;6.740;2022-07-03T13:20:22;26.40;53.70
57833;DHT22;43667;53.036;6.740;2022-07-03T13:22:48;26.50;53.70
57833;DHT22;43667;53.036;6.740;2022-07-03T13:25:14;26.70;56.10
57833;DHT22;43667;53.036;6.740;2022-07-03T13:27:39;26.90;55.30
57833;DHT22;43667;53.036;6.740;2022-07-03T13:30:05;27.20;54.90
57833;DHT22;43667;53.036;6.740;2022-07-03T13:32:31;27.50;52.90
57833;DHT22;43667;53.036;6.740;2022-07-03T13:34:57;27.70;52.40
57833;DHT22;43667;53.036;6.740;2022-07-03T13:37:22;27.80;52.00
57833;DHT22;43667;53.036;6.740;2022-07-03T13:39:48;27.90;52.60
57833;DHT22;43667;53.036;6.740;2022-07-03T13:42:13;27.80;51.10
57833;DHT22;43667;53.036;6.740;2022-07-03T13:44:39;27.60;51.30
57833;DHT22;43667;53.036;6.740;2022-07-03T13:47:05;27.40;52.30
57833;DHT22;43667;53.036;6.740;2022-07-03T13:49:31;27.20;54.10
57833;DHT22;43667;53.036;6.740;2022-07-03T13:51:56;26.90;55.60
57833;DHT22;43667;53.036;6.740;2022-07-03T13:54:22;26.60;56.40
57833;DHT22;43667;53.036;6.740;2022-07-03T13:56:47;26.40;57.60
57833;DHT22;43667;53.036;6.740;2022-07-03T13:59:13;26.10;57.90
57833;DHT22;43667;53.036;6.740;2022-07-03T14:01:38;25.80;60.30
57833;DHT22;43667;53.036;6.740;2022-07-03T14:04:04;25.70;62.20
57833;DHT22;43667;53.036;6.740;2022-07-03T14:06:29;25.40;62.00
57833;DHT22;43667;53.036;6.740;2022-07-03T14:08:55;25.20;67.00
57833;DHT22;43667;53.036;6.740;2022-07-03T14:11:21;25.00;78.90
57833;DHT22;43667;53.036;6.740;2022-07-03T14:13:46;24.80;85.10
57833;DHT22;43667;53.036;6.740;2022-07-03T14:16:12;24.50;93.40
57833;DHT22;43667;53.036;6.740;2022-07-03T14:18:40;24.00;95.30
57833;DHT22;43667;53.036;6.740;2022-07-03T14:21:09;23.40;98.70
57833;DHT22;43667;53.036;6.740;2022-07-03T14:23:34;22.80;99.90
57833;DHT22;43667;53.036;6.740;2022-07-03T14:26:00;22.30;99.90
57833;DHT22;43667;53.036;6.740;2022-07-03T14:28:26;21.90;99.90
57833;DHT22;43667;53.036;6.740;2022-07-03T14:31:10;21.50;99.90
57833;DHT22;43667;53.036;6.740;2022-07-03T14:33:44;21.30;99.90
57833;DHT22;43667;53.036;6.740;2022-07-03T14:36:10;21.10;99.90
57833;DHT22;43667;53.036;6.740;2022-07-03T14:38:36;20.90;99.90
57833;DHT22;43667;53.036;6.740;2022-07-03T14:41:01;20.80;99.90
57833;DHT22;43667;53.036;6.740;2022-07-03T14:43:27;20.80;99.90
57833;DHT22;43667;53.036;6.740;2022-07-03T14:45:52;20.80;99.90
57833;DHT22;43667;53.036;6.740;2022-07-03T14:48:18;20.80;99.90
57833;DHT22;43667;53.036;6.740;2022-07-03T14:50:44;20.90;99.90
57833;DHT22;43667;53.036;6.740;2022-07-03T14:53:10;20.80;99.90
57833;DHT22;43667;53.036;6.740;2022-07-03T14:55:36;20.80;99.90
57833;DHT22;43667;53.036;6.740;2022-07-03T14:58:04;20.70;99.90
57833;DHT22;43667;53.036;6.740;2022-07-03T15:00:30;20.70;99.90
57833;DHT22;43667;53.036;6.740;2022-07-03T15:03:05;20.80;99.90
57833;DHT22;43667;53.036;6.740;2022-07-03T15:05:34;21.00;99.90
57833;DHT22;43667;53.036;6.740;2022-07-03T15:10:25;21.40;99.90
57833;DHT22;43667;53.036;6.740;2022-07-03T15:12:51;21.90;99.90
57833;DHT22;43667;53.036;6.740;2022-07-03T15:15:17;22.50;99.90
57833;DHT22;43667;53.036;6.740;2022-07-03T15:17:43;23.10;99.90
57833;DHT22;43667;53.036;6.740;2022-07-03T15:20:11;23.70;99.90
57833;DHT22;43667;53.036;6.740;2022-07-03T15:22:38;24.10;99.90
57833;DHT22;43667;53.036;6.740;2022-07-03T15:25:05;24.60;99.90
57833;DHT22;43667;53.036;6.740;2022-07-03T15:27:32;25.00;99.90
57833;DHT22;43667;53.036;6.740;2022-07-03T15:29:57;25.40;99.90
57833;DHT22;43667;53.036;6.740;2022-07-03T15:32:23;25.30;98.10
57833;DHT22;43667;53.036;6.740;2022-07-03T15:34:49;25.00;97.40
57833;DHT22;43667;53.036;6.740;2022-07-03T15:37:30;24.50;98.10
57833;DHT22;43667;53.036;6.740;2022-07-03T15:40:02;24.10;99.30
57833;DHT22;43667;53.036;6.740;2022-07-03T15:47:57;23.40;99.90
57833;DHT22;43667;53.036;6.740;2022-07-03T15:50:39;23.20;99.90
57833;DHT22;43667;53.036;6.740;2022-07-03T15:53:10;23.00;99.90
57833;DHT22;43667;53.036;6.740;2022-07-03T15:55:38;22.80;99.90
57833;DHT22;43667;53.036;6.740;2022-07-03T15:58:05;22.60;99.90
57833;DHT22;43667;53.036;6.740;2022-07-03T16:00:34;22.40;99.90
57833;DHT22;43667;53.036;6.740;2022-07-03T16:05:45;22.10;99.90
57833;DHT22;43667;53.036;6.740;2022-07-03T16:08:12;22.00;99.90
57833;DHT22;43667;53.036;6.740;2022-07-03T16:10:39;21.90;99.90
57833;DHT22;43667;53.036;6.740;2022-07-03T16:13:04;21.90;99.90
57833;DHT22;43667;53.036;6.740;2022-07-03T16:15:40;21.80;99.90
57833;DHT22;43667;53.036;6.740;2022-07-03T16:18:06;21.70;99.90
57833;DHT22;43667;53.036;6.740;2022-07-03T16:20:32;21.60;99.90
57833;DHT22;43667;53.036;6.740;2022-07-03T16:23:02;21.50;99.90
57833;DHT22;43667;53.036;6.740;2022-07-03T16:25:34;21.50;99.90
57833;DHT22;43667;53.036;6.740;2022-07-03T16:28:04;21.40;99.90
57833;DHT22;43667;53.036;6.740;2022-07-03T16:30:30;21.50;99.90
57833;DHT22;43667;53.036;6.740;2022-07-03T16:32:56;22.10;99.90
57833;DHT22;43667;53.036;6.740;2022-07-03T16:35:40;23.00;99.90
57833;DHT22;43667;53.036;6.740;2022-07-03T16:38:08;23.30;99.90
57833;DHT22;43667;53.036;6.740;2022-07-03T16:40:34;23.20;99.90
57833;DHT22;43667;53.036;6.740;2022-07-03T16:43:04;23.20;99.90
57833;DHT22;43667;53.036;6.740;2022-07-03T16:45:30;23.20;99.90